Time;durP1;ratioP1;P1;durP2;ratioP2;P2;SDS_P1;SDS_P2;PMS_P1;PMS_P2;Temp;Humidity;BMP_temperature;BMP_pressure;BME280_temperature;BME280_humidity;BME280_pressure;Samples;Min_cycle;Max_cycle;Signal;HPM_P1;HPM_P2
2022/11/25 00:01:32;;;;;;;15.88;7.35;;;;;;;2.39;100.00;100274.28;5054272;28;20210;-75
2022/11/25 00:03:59;;;;;;;13.23;6.47;;;;;;;2.48;100.00;100281.25;5054269;28;20223;-74
2022/11/25 00:06:27;;;;;;;9.15;6.35;;;;;;;2.46;100.00;100291.00;5055626;28;20687;-73
2022/11/25 00:08:56;;;;;;;9.00;5.50;;;;;;;2.41;100.00;100293.75;5054057;28;20199;-75
2022/11/25 00:11:23;;;;;;;13.15;6.70;;;;;;;2.46;100.00;100283.03;5057038;28;20319;-76
2022/11/25 00:13:50;;;;;;;13.40;6.15;;;;;;;2.38;100.00;100279.63;5054084;28;20201;-74
2022/11/25 00:16:19;;;;;;;11.52;5.85;;;;;;;2.35;100.00;100277.84;5054392;28;20279;-74
2022/11/25 00:18:48;;;;;;;9.18;5.90;;;;;;;2.25;100.00;100271.81;5054072;28;20210;-73
2022/11/25 00:21:16;;;;;;;13.35;5.63;;;;;;;2.23;100.00;100270.94;5054334;28;20200;-74
2022/11/25 00:23:43;;;;;;;12.55;6.38;;;;;;;2.16;100.00;100277.25;5035487;28;20260;-75
2022/11/25 00:26:11;;;;;;;17.67;6.90;;;;;;;2.18;100.00;100279.88;5035049;28;20291;-73
2022/11/25 00:28:38;;;;;;;11.57;5.50;;;;;;;2.31;100.00;100278.84;5034051;28;20200;-73
2022/11/25 00:31:07;;;;;;;12.63;5.55;;;;;;;2.23;100.00;100267.41;5040713;28;20215;-73
2022/11/25 00:33:35;;;;;;;13.05;5.50;;;;;;;2.12;100.00;100266.69;5041323;28;20582;-73
2022/11/25 00:36:02;;;;;;;13.63;5.75;;;;;;;2.06;100.00;100272.97;5040734;28;20259;-76
2022/11/25 00:38:28;;;;;;;11.38;5.85;;;;;;;2.11;100.00;100272.91;5041341;28;20316;-76
2022/11/25 00:44:34;;;;;;;12.15;5.45;;;;;;;2.02;100.00;100273.91;5038733;28;20204;-74
2022/11/25 00:46:27;;;;;;;13.65;5.70;;;;;;;1.96;100.00;100281.94;5053833;28;20196;-75
2022/11/25 00:48:55;;;;;;;7.60;5.50;;;;;;;1.87;100.00;100273.16;5044220;28;20205;-76
2022/11/25 00:51:22;;;;;;;12.18;5.88;;;;;;;1.97;100.00;100270.41;5046090;28;20295;-76
2022/11/25 00:53:48;;;;;;;13.85;5.57;;;;;;;1.79;100.00;100266.22;5051997;28;20285;-72
2022/11/25 00:56:15;;;;;;;11.35;6.05;;;;;;;1.75;100.00;100265.34;5061047;28;20284;-74
2022/11/25 00:58:43;;;;;;;10.32;6.32;;;;;;;1.91;100.00;100262.53;5063706;28;20204;-75
2022/11/25 01:01:10;;;;;;;12.40;7.10;;;;;;;1.92;100.00;100269.56;5060999;28;20226;-72
2022/11/25 01:03:37;;;;;;;15.82;7.40;;;;;;;2.00;100.00;100260.63;5047699;28;20230;-73
2022/11/25 01:06:06;;;;;;;12.23;7.63;;;;;;;1.97;100.00;100254.50;5040304;28;20228;-74
2022/11/25 01:08:36;;;;;;;13.32;7.00;;;;;;;2.00;100.00;100251.78;5037089;28;20305;-74
2022/11/25 01:11:05;;;;;;;19.48;7.47;;;;;;;2.08;100.00;100269.38;5038749;28;20292;-75
2022/11/25 01:13:32;;;;;;;12.18;6.68;;;;;;;2.21;100.00;100271.88;5038560;28;20284;-73
2022/11/25 01:16:01;;;;;;;12.32;6.40;;;;;;;2.23;100.00;100262.97;5053034;28;20297;-74
2022/11/25 01:18:28;;;;;;;11.52;6.40;;;;;;;2.24;100.00;100272.72;5062263;28;20296;-73
2022/11/25 01:20:55;;;;;;;10.63;6.70;;;;;;;2.22;100.00;100271.84;5067260;28;20203;-74
2022/11/25 01:23:23;;;;;;;11.32;7.30;;;;;;;2.21;100.00;100278.06;5060315;28;20208;-76
2022/11/25 01:25:49;;;;;;;18.08;6.35;;;;;;;2.25;100.00;100281.56;5067278;28;20225;-73
2022/11/25 01:28:16;;;;;;;13.48;7.35;;;;;;;2.27;100.00;100285.09;5060837;28;20204;-73
2022/11/25 01:30:42;;;;;;;12.63;7.22;;;;;;;2.07;100.00;100282.69;5037328;28;20550;-72
2022/11/25 01:33:09;;;;;;;13.30;7.32;;;;;;;2.16;100.00;100282.56;5035859;28;20254;-75
2022/11/25 01:35:36;;;;;;;15.15;7.82;;;;;;;2.08;100.00;100279.09;5036418;28;20732;-74
2022/11/25 01:38:03;;;;;;;11.90;7.47;;;;;;;2.19;100.00;100276.31;5035705;28;20229;-74
2022/11/25 01:40:31;;;;;;;22.08;7.90;;;;;;;2.37;100.00;100273.41;5036009;28;20688;-74
2022/11/25 01:42:57;;;;;;;12.43;7.15;;;;;;;2.25;100.00;100274.47;5039752;28;20651;-75
2022/11/25 01:45:33;;;;;;;15.15;8.40;;;;;;;2.31;100.00;100284.16;5057819;28;20230;-72
2022/11/25 01:48:06;;;;;;;11.88;7.22;;;;;;;2.57;100.00;100283.75;5058171;28;20235;-75
2022/11/25 01:50:35;;;;;;;11.95;7.15;;;;;;;2.41;100.00;100285.75;5056800;28;20208;-73
2022/11/25 01:53:07;;;;;;;15.90;7.90;;;;;;;2.41;100.00;100282.22;5057146;28;20239;-75
2022/11/25 01:55:37;;;;;;;15.38;6.93;;;;;;;2.49;100.00;100277.69;5055275;28;20229;-73
2022/11/25 01:58:08;;;;;;;12.75;7.45;;;;;;;2.48;100.00;100278.59;5042660;28;20202;-73
2022/11/25 02:00:37;;;;;;;15.73;6.82;;;;;;;2.57;100.00;100281.09;5035131;28;20209;-73
2022/11/25 02:03:04;;;;;;;9.68;6.55;;;;;;;2.63;100.00;100285.47;5035040;28;20264;-72
2022/11/25 02:05:38;;;;;;;19.98;7.55;;;;;;;2.29;100.00;100286.81;5035073;28;20228;-72
2022/11/25 02:08:07;;;;;;;12.07;7.90;;;;;;;2.27;100.00;100282.44;5034257;28;20188;-73
2022/11/25 02:10:35;;;;;;;12.23;6.88;;;;;;;2.41;100.00;100279.56;5034832;28;20605;-72
2022/11/25 02:13:02;;;;;;;11.73;6.63;;;;;;;2.63;100.00;100282.81;5051574;28;20228;-72
2022/11/25 02:15:30;;;;;;;12.85;7.85;;;;;;;2.65;100.00;100276.56;5054881;28;20243;-73
2022/11/25 02:17:57;;;;;;;13.13;6.88;;;;;;;2.65;100.00;100273.03;5054453;28;20221;-73
2022/11/25 02:20:24;;;;;;;13.45;7.43;;;;;;;2.62;100.00;100281.03;5039951;28;20565;-72
2022/11/25 02:22:58;;;;;;;16.23;7.78;;;;;;;2.60;100.00;100272.19;5035336;28;20229;-73
2022/11/25 02:25:29;;;;;;;12.05;6.72;;;;;;;2.57;100.00;100281.09;5049866;28;20217;-72
2022/11/25 02:28:00;;;;;;;16.25;7.32;;;;;;;2.65;100.00;100281.00;5053727;28;20734;-72
2022/11/25 02:30:26;;;;;;;16.73;8.82;;;;;;;2.68;100.00;100275.63;5054701;28;20200;-71
2022/11/25 02:32:53;;;;;;;14.85;7.30;;;;;;;2.75;100.00;100271.09;5054737;28;20233;-73
2022/11/25 02:35:37;;;;;;;12.52;7.30;;;;;;;2.60;100.00;100267.78;5039427;28;20248;-73
2022/11/25 02:38:08;;;;;;;15.27;7.85;;;;;;;2.69;100.00;100262.31;5033915;28;20231;-72
2022/11/25 02:40:42;;;;;;;12.60;7.57;;;;;;;2.74;100.00;100270.22;5037652;28;20205;-73
2022/11/25 02:43:08;;;;;;;12.32;6.90;;;;;;;2.72;100.00;100264.06;5037878;28;20182;-73
2022/11/25 02:45:51;;;;;;;10.90;6.63;;;;;;;2.80;100.00;100256.81;5037130;28;20232;-73
2022/11/25 02:48:18;;;;;;;13.30;7.10;;;;;;;2.84;100.00;100265.63;5037044;28;20276;-71
2022/11/25 02:50:45;;;;;;;10.93;6.75;;;;;;;2.80;100.00;100256.81;5035456;28;20572;-72
2022/11/25 02:53:11;;;;;;;13.57;6.75;;;;;;;2.82;100.00;100259.47;5033237;28;20225;-73
2022/11/25 02:55:39;;;;;;;12.27;7.60;;;;;;;2.88;100.00;100259.38;5033942;28;20244;-72
2022/11/25 02:58:06;;;;;;;12.27;7.13;;;;;;;2.88;100.00;100264.69;5033366;28;20293;-73
2022/11/25 03:00:33;;;;;;;14.57;7.50;;;;;;;2.96;100.00;100260.09;5034153;28;20229;-74
2022/11/25 03:02:59;;;;;;;12.07;7.15;;;;;;;2.98;100.00;100257.44;5043021;28;20197;-73
2022/11/25 03:05:26;;;;;;;14.38;6.85;;;;;;;2.95;100.00;100255.69;5053648;28;20234;-72
2022/11/25 03:07:52;;;;;;;11.48;6.95;;;;;;;3.00;100.00;100253.84;5052950;28;20292;-72
2022/11/25 03:10:19;;;;;;;10.88;7.45;;;;;;;2.92;100.00;100258.44;5051829;28;20185;-72
2022/11/25 03:12:47;;;;;;;15.07;6.78;;;;;;;2.95;100.00;100255.69;5053676;28;20231;-73
2022/11/25 03:15:13;;;;;;;11.60;7.15;;;;;;;2.93;100.00;100268.16;5055521;28;20726;-75
2022/11/25 03:17:41;;;;;;;19.85;8.15;;;;;;;2.93;100.00;100261.03;5044220;28;20574;-74
2022/11/25 03:20:08;;;;;;;13.00;6.90;;;;;;;2.99;100.00;100268.06;5033630;28;20216;-73
2022/11/25 03:22:35;;;;;;;17.08;7.45;;;;;;;3.09;100.00;100272.31;5033537;28;20198;-74
2022/11/25 03:25:02;;;;;;;12.63;7.85;;;;;;;3.08;100.00;100267.03;5034878;28;20214;-72
2022/11/25 03:27:28;;;;;;;10.57;7.03;;;;;;;3.21;100.00;100267.69;5050507;28;20265;-71
2022/11/25 03:29:56;;;;;;;11.93;6.65;;;;;;;3.12;100.00;100266.06;5040871;28;20273;-71
2022/11/25 03:32:23;;;;;;;10.65;6.78;;;;;;;3.16;100.00;100261.56;5038117;28;20225;-72
2022/11/25 03:34:49;;;;;;;13.50;7.63;;;;;;;3.21;100.00;100267.69;5037231;28;20232;-73
2022/11/25 03:37:16;;;;;;;16.10;7.15;;;;;;;3.24;100.00;100257.88;5042336;28;20270;-74
2022/11/25 03:39:42;;;;;;;10.07;6.45;;;;;;;3.35;100.00;100276.31;5056641;28;20217;-71
2022/11/25 03:42:09;;;;;;;10.63;5.78;;;;;;;3.31;100.00;100279.94;5037086;28;20189;-71
2022/11/25 03:44:35;;;;;;;9.18;6.22;;;;;;;3.31;100.00;100274.63;5037908;28;20221;-70
2022/11/25 03:47:03;;;;;;;15.80;7.60;;;;;;;3.28;100.00;100266.69;5037903;28;20266;-71
2022/11/25 03:49:30;;;;;;;9.68;6.43;;;;;;;3.25;100.00;100269.38;5037345;28;20213;-71
2022/11/25 03:51:57;;;;;;;12.52;6.80;;;;;;;3.15;100.00;100270.47;5037717;28;20210;-73
2022/11/25 03:54:23;;;;;;;14.65;7.45;;;;;;;3.25;100.00;100267.59;5043994;28;20209;-70
2022/11/25 03:56:50;;;;;;;14.43;6.78;;;;;;;3.29;100.00;100260.44;5057275;28;20289;-70
2022/11/25 03:59:16;;;;;;;12.98;6.40;;;;;;;3.38;100.00;100259.41;5046775;28;20583;-73
2022/11/25 04:01:43;;;;;;;13.98;7.15;;;;;;;3.40;100.00;100254.94;5056582;28;20201;-73
2022/11/25 04:04:11;;;;;;;11.68;6.90;;;;;;;3.37;100.00;100257.63;5047378;28;20216;-72
2022/11/25 04:06:39;;;;;;;10.70;6.15;;;;;;;3.29;100.00;100257.78;5033495;28;20202;-73
2022/11/25 04:09:05;;;;;;;11.45;6.65;;;;;;;3.32;100.00;100255.97;5035920;28;20217;-72
2022/11/25 04:14:13;;;;;;;14.10;8.00;;;;;;;3.41;100.00;100270.00;5039823;28;20229;-75
2022/11/25 04:16:39;;;;;;;12.63;6.80;;;;;;;3.51;100.00;100261.81;5045453;28;20194;-72
2022/11/25 04:19:06;;;;;;;11.98;7.30;;;;;;;3.43;100.00;100252.22;5040308;28;20293;-72
2022/11/25 04:21:34;;;;;;;13.32;7.28;;;;;;;3.48;100.00;100256.56;5039268;28;20196;-73
2022/11/25 04:24:00;;;;;;;10.50;7.78;;;;;;;3.57;100.00;100257.28;5043327;28;20662;-73
2022/11/25 04:26:27;;;;;;;9.35;7.90;;;;;;;3.67;100.00;100254.41;5034192;28;20693;-74
2022/11/25 04:28:53;;;;;;;10.18;6.93;;;;;;;3.67;100.00;100261.53;5032375;28;20198;-72
2022/11/25 04:31:20;;;;;;;11.60;7.43;;;;;;;3.56;100.00;100261.72;5032564;28;20198;-73
2022/11/25 04:33:48;;;;;;;11.65;6.53;;;;;;;3.58;100.00;100261.72;5049426;28;20588;-73
2022/11/25 04:36:14;;;;;;;8.77;6.55;;;;;;;3.60;100.00;100267.88;5053121;28;20201;-74
2022/11/25 04:38:42;;;;;;;12.23;7.18;;;;;;;3.59;100.00;100274.97;5052672;28;20215;-72
2022/11/25 04:41:08;;;;;;;8.85;6.60;;;;;;;3.48;100.00;100266.31;5054852;28;20295;-73
2022/11/25 04:43:35;;;;;;;18.02;7.35;;;;;;;3.45;100.00;100261.06;5053430;28;20195;-73
2022/11/25 04:46:02;;;;;;;16.90;11.82;;;;;;;3.54;100.00;100271.53;5043960;28;20268;-74
2022/11/25 04:48:29;;;;;;;25.10;14.88;;;;;;;3.49;100.00;100258.31;5040051;28;20696;-73
2022/11/25 04:50:56;;;;;;;19.58;8.70;;;;;;;3.31;100.00;100258.66;5060835;28;20292;-74
2022/11/25 04:53:22;;;;;;;14.55;7.90;;;;;;;3.33;100.00;100248.84;5058725;28;20228;-72
2022/11/25 04:55:50;;;;;;;13.75;7.60;;;;;;;3.44;100.00;100256.66;5057142;28;20225;-74
2022/11/25 04:59:38;;;;;;;11.20;6.85;;;;;;;3.47;100.00;100260.09;5057043;28;20205;-72
2022/11/25 05:01:03;;;;;;;12.38;7.30;;;;;;;3.44;100.00;100254.84;5048483;28;20186;-76
2022/11/25 05:03:29;;;;;;;14.43;8.60;;;;;;;3.33;100.00;100244.38;5045326;28;20611;-72
2022/11/25 05:05:56;;;;;;;10.50;8.60;;;;;;;3.39;100.00;100239.84;5052053;28;20225;-74
2022/11/25 05:08:22;;;;;;;13.00;8.27;;;;;;;3.38;100.00;100248.75;5052475;28;20201;-74
2022/11/25 05:10:50;;;;;;;12.30;8.18;;;;;;;3.37;100.00;100258.53;5052147;28;20201;-74
2022/11/25 05:13:17;;;;;;;8.90;6.72;;;;;;;3.38;100.00;100262.94;5038279;28;20218;-74
2022/11/25 05:15:43;;;;;;;11.68;7.15;;;;;;;3.39;100.00;100259.34;5093379;22;20236;-75
2022/11/25 05:18:10;;;;;;;11.18;7.50;;;;;;;3.50;100.00;100265.38;5072901;28;20227;-75
2022/11/25 05:20:36;;;;;;;11.48;7.63;;;;;;;3.53;100.00;100264.47;5059178;28;20198;-74
2022/11/25 05:23:03;;;;;;;12.60;8.27;;;;;;;3.52;100.00;100266.22;5045128;28;20198;-75
2022/11/25 05:25:29;;;;;;;12.23;8.07;;;;;;;3.48;100.00;100260.97;5033120;28;20222;-74
2022/11/25 05:27:57;;;;;;;13.55;8.18;;;;;;;3.44;100.00;100259.31;5039867;28;20202;-75
2022/11/25 05:30:24;;;;;;;14.15;8.88;;;;;;;3.43;100.00;100257.53;5039209;28;20183;-75
2022/11/25 05:32:50;;;;;;;13.00;8.63;;;;;;;3.52;100.00;100258.22;5036434;28;20224;-76
2022/11/25 05:35:17;;;;;;;13.55;9.00;;;;;;;3.56;100.00;100251.06;5036457;28;20218;-74
2022/11/25 05:37:44;;;;;;;11.85;8.13;;;;;;;3.54;100.00;100253.75;5051264;28;20200;-75
2022/11/25 05:40:11;;;;;;;9.73;7.45;;;;;;;3.61;100.00;100251.00;5044229;28;20198;-74
2022/11/25 05:42:38;;;;;;;13.27;7.20;;;;;;;3.64;100.00;100250.91;5037556;28;20198;-75
2022/11/25 05:45:07;;;;;;;16.25;9.15;;;;;;;3.69;100.00;100254.38;5036315;28;20573;-75
2022/11/25 05:47:34;;;;;;;13.60;9.48;;;;;;;3.91;100.00;100263.72;5036219;28;20206;-75
2022/11/25 05:50:00;;;;;;;13.25;9.15;;;;;;;3.79;100.00;100261.28;5037180;28;20209;-74
2022/11/25 05:52:27;;;;;;;14.32;9.77;;;;;;;3.91;100.00;100254.81;5036352;28;20293;-75
2022/11/25 05:54:53;;;;;;;75.50;41.50;;;;;;;4.02;100.00;100247.47;5035771;28;20720;-76
2022/11/25 05:57:20;;;;;;;26.58;16.02;;;;;;;4.04;100.00;100261.66;5035501;28;20198;-76
2022/11/25 05:59:46;;;;;;;15.30;10.60;;;;;;;4.05;100.00;100275.84;5034500;28;20586;-75
2022/11/25 06:02:14;;;;;;;16.38;9.70;;;;;;;4.05;100.00;100273.19;5037395;28;20213;-74
2022/11/25 06:04:41;;;;;;;14.07;8.57;;;;;;;4.11;100.00;100279.25;5036888;28;20224;-76
2022/11/25 06:07:09;;;;;;;12.48;8.35;;;;;;;4.11;100.00;100273.94;5037245;28;20620;-76
2022/11/25 06:09:36;;;;;;;16.42;9.48;;;;;;;4.13;100.00;100281.91;5035651;28;20198;-74
2022/11/25 06:12:03;;;;;;;13.20;10.05;;;;;;;4.16;100.00;100280.06;5035735;28;20194;-75
2022/11/25 06:14:30;;;;;;;11.80;8.93;;;;;;;4.15;100.00;100288.97;5038521;28;20312;-74
2022/11/25 06:16:56;;;;;;;13.30;9.25;;;;;;;4.13;100.00;100292.56;5038852;28;20188;-76
2022/11/25 06:19:24;;;;;;;13.15;8.18;;;;;;;4.14;100.00;100297.00;5038840;28;20209;-74
2022/11/25 06:21:51;;;;;;;61.22;33.50;;;;;;;4.16;100.00;100297.81;5036567;28;20257;-75
2022/11/25 06:24:18;;;;;;;18.70;11.57;;;;;;;4.14;100.00;100305.88;5036065;28;20204;-74
2022/11/25 06:26:44;;;;;;;11.02;8.50;;;;;;;4.18;100.00;100304.00;5036479;28;20201;-75
2022/11/25 06:29:12;;;;;;;15.02;8.82;;;;;;;4.17;100.00;100305.81;5034189;28;20297;-75
2022/11/25 06:31:38;;;;;;;12.73;7.82;;;;;;;4.13;100.00;100300.56;5037162;28;20226;-75
2022/11/25 06:34:08;;;;;;;12.80;8.40;;;;;;;4.10;100.00;100311.31;5035819;28;20222;-75
2022/11/25 06:36:36;;;;;;;12.23;8.48;;;;;;;4.04;100.00;100298.09;5036384;28;20256;-75
2022/11/25 06:39:02;;;;;;;12.43;8.13;;;;;;;3.96;100.00;100299.13;5035433;28;20687;-75
2022/11/25 06:41:29;;;;;;;12.10;8.30;;;;;;;4.01;100.00;100309.69;5046579;28;20210;-76
2022/11/25 06:43:56;;;;;;;12.98;8.57;;;;;;;3.94;100.00;100308.06;5048103;28;20234;-75
2022/11/25 06:46:23;;;;;;;15.82;9.68;;;;;;;3.92;100.00;100315.22;5057741;28;20213;-75
2022/11/25 06:48:49;;;;;;;10.23;7.82;;;;;;;3.96;100.00;100315.13;5045347;28;20275;-75
2022/11/25 06:51:17;;;;;;;15.60;10.32;;;;;;;3.99;100.00;100318.63;5045180;28;20233;-74
2022/11/25 06:53:45;;;;;;;14.18;10.10;;;;;;;4.12;100.00;100325.47;5039867;28;20289;-76
2022/11/25 06:56:13;;;;;;;13.95;8.80;;;;;;;4.22;100.00;100335.03;5052999;28;20246;-74
2022/11/25 06:58:41;;;;;;;12.07;9.10;;;;;;;4.30;100.00;100338.44;5050684;28;20204;-74
2022/11/25 07:01:12;;;;;;;13.10;8.55;;;;;;;4.25;100.00;100334.09;5043596;28;20198;-74
2022/11/25 07:03:39;;;;;;;14.55;9.32;;;;;;;4.35;100.00;100338.34;5043828;28;20237;-74
2022/11/25 07:06:07;;;;;;;15.02;8.20;;;;;;;4.32;100.00;100331.28;5042025;28;20226;-76
2022/11/25 07:08:33;;;;;;;16.75;8.50;;;;;;;4.38;100.00;100336.47;5041993;28;20212;-75
2022/11/25 07:11:04;;;;;;;15.90;9.00;;;;;;;4.35;100.00;100333.00;5040777;28;20202;-74
2022/11/25 07:13:31;;;;;;;11.63;8.10;;;;;;;4.58;100.00;100327.16;5041072;28;20579;-74
2022/11/25 07:16:01;;;;;;;12.52;8.60;;;;;;;4.69;100.00;100326.94;5038908;28;20316;-75
2022/11/25 07:18:30;;;;;;;12.70;8.77;;;;;;;4.67;100.00;100332.28;5037076;28;20236;-76
2022/11/25 07:21:01;;;;;;;12.32;8.68;;;;;;;4.69;100.00;100327.81;5036268;28;20297;-75
2022/11/25 07:23:27;;;;;;;15.25;8.50;;;;;;;4.80;100.00;100324.91;5037899;28;20207;-75
2022/11/25 07:25:54;;;;;;;15.77;8.85;;;;;;;4.90;100.00;100338.91;5038850;28;20232;-75
2022/11/25 07:28:22;;;;;;;13.77;9.50;;;;;;;4.90;100.00;100334.44;5035824;28;20202;-76
2022/11/25 07:30:48;;;;;;;18.60;10.75;;;;;;;4.95;100.00;100339.66;5036560;28;20213;-74
2022/11/25 07:33:15;;;;;;;13.00;8.95;;;;;;;5.03;100.00;100340.38;5034277;28;20223;-75
2022/11/25 07:35:41;;;;;;;13.05;10.23;;;;;;;5.05;100.00;100346.56;5035971;28;20220;-75
2022/11/25 07:38:08;;;;;;;13.18;9.45;;;;;;;5.14;100.00;100346.34;5034438;28;20211;-75
2022/11/25 07:40:34;;;;;;;12.68;9.85;;;;;;;5.17;100.00;100354.25;5034886;28;20585;-74
2022/11/25 07:43:01;;;;;;;11.77;8.57;;;;;;;5.29;100.00;100347.78;5034457;28;20208;-75
2022/11/25 07:45:29;;;;;;;16.40;9.60;;;;;;;5.25;100.00;100347.88;5035711;28;20224;-74
2022/11/25 07:47:55;;;;;;;16.08;9.50;;;;;;;5.29;100.00;100357.56;5036989;28;20726;-74
2022/11/25 07:50:22;;;;;;;12.30;9.45;;;;;;;5.52;100.00;100359.69;5037166;28;20204;-74
2022/11/25 07:52:49;;;;;;;12.13;8.68;;;;;;;5.60;100.00;100355.88;5033855;28;20211;-75
2022/11/25 07:55:15;;;;;;;16.20;9.48;;;;;;;5.57;100.00;100363.97;5033787;28;20236;-74
2022/11/25 07:57:42;;;;;;;14.20;9.88;;;;;;;5.50;100.00;100359.72;5033077;28;20666;-74
2022/11/25 08:00:10;;;;;;;12.02;9.55;;;;;;;5.50;100.00;100361.50;5033432;28;20203;-74
2022/11/25 08:02:37;;;;;;;13.48;9.30;;;;;;;5.55;100.00;100351.56;5033407;28;20203;-75
2022/11/25 08:05:04;;;;;;;13.40;8.63;;;;;;;5.60;100.00;100369.22;5032954;28;20221;-75
2022/11/25 08:07:31;;;;;;;13.88;8.90;;;;;;;5.60;100.00;100366.56;5037228;28;20693;-75
2022/11/25 08:09:58;;;;;;;14.52;9.00;;;;;;;5.66;100.00;100370.00;5040829;28;20233;-74
2022/11/25 08:12:24;;;;;;;14.40;9.02;;;;;;;5.72;100.00;100362.72;5039585;28;20289;-75
2022/11/25 08:14:51;;;;;;;14.13;8.63;;;;;;;5.80;100.00;100374.06;5035124;28;20426;-75
2022/11/25 08:17:17;;;;;;;14.38;10.15;;;;;;;5.80;100.00;100359.84;5034012;28;20235;-75
2022/11/25 08:19:45;;;;;;;16.02;8.80;;;;;;;5.88;100.00;100372.97;5032723;28;20278;-75
2022/11/25 08:22:12;;;;;;;13.73;8.73;;;;;;;5.88;100.00;100376.56;5033113;28;20223;-75
2022/11/25 08:24:39;;;;;;;14.02;9.98;;;;;;;5.94;100.00;100375.50;5032634;28;20228;-75
2022/11/25 08:27:05;;;;;;;15.15;9.02;;;;;;;6.07;100.00;100376.09;5034163;28;20219;-75
2022/11/25 08:29:32;;;;;;;14.07;8.40;;;;;;;6.14;100.00;100372.31;5033228;28;20221;-75
2022/11/25 08:31:58;;;;;;;12.90;9.65;;;;;;;6.16;100.00;100367.81;5033113;28;20296;-75
2022/11/25 08:34:25;;;;;;;15.73;9.00;;;;;;;6.15;100.00;100371.38;5032454;28;20235;-74
2022/11/25 08:36:53;;;;;;;20.77;10.52;;;;;;;6.00;100.00;100373.56;5032836;28;20201;-75
2022/11/25 08:39:21;;;;;;;24.30;10.43;;;;;;;6.01;100.00;100379.78;5032174;28;20315;-74
2022/11/25 08:41:48;;;;;;;16.08;9.90;;;;;;;6.08;100.00;100384.03;5048428;28;20209;-75
2022/11/25 08:44:14;;;;;;;16.90;9.25;;;;;;;6.09;100.00;100375.13;5041516;28;20291;-76
2022/11/25 08:46:42;;;;;;;19.42;10.32;;;;;;;6.08;100.00;100383.19;5033765;28;20631;-74
2022/11/25 08:49:08;;;;;;;17.27;9.18;;;;;;;6.16;100.00;100386.53;5032358;28;20299;-75
2022/11/25 08:51:37;;;;;;;27.48;13.82;;;;;;;6.29;100.00;100392.41;5035804;28;20204;-75
2022/11/25 08:54:06;;;;;;;14.70;10.50;;;;;;;6.34;100.00;100393.16;5037725;28;20615;-75
2022/11/25 08:56:33;;;;;;;15.80;10.52;;;;;;;6.37;100.00;100390.41;5036627;28;20288;-76
2022/11/25 08:59:00;;;;;;;14.13;9.77;;;;;;;6.42;100.00;100389.38;5035852;28;20205;-74
2022/11/25 09:01:27;;;;;;;13.85;9.32;;;;;;;6.51;100.00;100384.66;5036692;28;20220;-74
2022/11/25 09:03:55;;;;;;;15.20;8.95;;;;;;;6.45;100.00;100389.25;5036608;28;20291;-75
2022/11/25 09:06:22;;;;;;;19.02;9.60;;;;;;;6.59;100.00;100401.38;5036523;28;20316;-74
2022/11/25 09:08:49;;;;;;;11.93;8.45;;;;;;;6.66;100.00;100402.94;5035229;28;20201;-75
2022/11/25 09:11:17;;;;;;;14.23;9.05;;;;;;;6.85;100.00;100406.84;5036529;28;20612;-75
2022/11/25 09:13:44;;;;;;;13.23;9.32;;;;;;;6.78;100.00;100412.41;5036111;28;20237;-74
2022/11/25 09:16:10;;;;;;;13.75;9.27;;;;;;;6.77;100.00;100422.25;5035982;28;20710;-74
2022/11/25 09:18:38;;;;;;;15.60;10.45;;;;;;;6.75;100.00;100421.41;5035167;28;20211;-75
2022/11/25 09:21:09;;;;;;;16.80;10.10;;;;;;;6.85;100.00;100420.22;5037200;28;20254;-75
2022/11/25 09:23:37;;;;;;;14.38;9.27;;;;;;;6.93;100.00;100429.81;5036389;28;20236;-75
2022/11/25 09:26:05;;;;;;;14.85;9.85;;;;;;;6.83;100.00;100431.91;5036580;28;20251;-74
2022/11/25 09:28:35;;;;;;;17.40;9.40;;;;;;;6.88;100.00;100428.16;5035441;28;20209;-73
2022/11/25 09:31:06;;;;;;;19.17;10.52;;;;;;;6.98;100.00;100433.22;5035991;28;20213;-74
2022/11/25 09:33:33;;;;;;;21.10;10.50;;;;;;;7.07;100.00;100438.31;5036987;28;20531;-74
2022/11/25 09:36:00;;;;;;;16.60;9.68;;;;;;;7.27;100.00;100451.97;5035915;28;20597;-74
2022/11/25 09:38:26;;;;;;;16.17;10.05;;;;;;;7.50;100.00;100445.00;5035449;28;20212;-75
2022/11/25 09:41:00;;;;;;;12.70;9.35;;;;;;;7.46;100.00;100446.03;5035699;28;20208;-75
2022/11/25 09:46:45;;;;;;;12.40;8.82;;;;;;;7.88;100.00;100448.25;5036536;28;20745;-76
2022/11/25 09:49:29;;;;;;;18.98;9.45;;;;;;;8.03;100.00;100453.09;5037488;28;20277;-75
2022/11/25 09:52:06;;;;;;;12.65;9.60;;;;;;;8.15;100.00;100446.44;5041705;28;20269;-75
2022/11/25 09:54:37;;;;;;;13.13;9.05;;;;;;;8.16;100.00;100461.56;5037851;28;20229;-77
2022/11/25 09:57:18;;;;;;;13.80;10.27;;;;;;;7.98;100.00;100459.53;5036086;28;20260;-74
2022/11/25 09:59:54;;;;;;;15.32;9.38;;;;;;;7.98;100.00;100451.47;5036708;28;20193;-74
2022/11/25 10:02:28;;;;;;;15.20;10.00;;;;;;;7.79;100.00;100459.28;5037491;28;20188;-77
2022/11/25 10:05:01;;;;;;;17.20;10.50;;;;;;;7.82;100.00;100452.00;5038242;28;20248;-74
2022/11/25 10:07:35;;;;;;;11.15;9.02;;;;;;;7.78;100.00;100458.41;5047006;28;20233;-74
2022/11/25 10:10:04;;;;;;;14.75;10.45;;;;;;;7.70;100.00;100460.44;5045900;28;20277;-75
2022/11/25 10:12:37;;;;;;;17.30;9.52;;;;;;;7.99;100.00;100472.91;5049699;28;20212;-73
2022/11/25 10:15:12;;;;;;;16.17;8.98;;;;;;;7.93;100.00;100471.28;5034949;28;20234;-74
2022/11/25 10:17:45;;;;;;;10.30;8.48;;;;;;;8.22;100.00;100474.78;5034461;28;20288;-74
2022/11/25 10:20:19;;;;;;;14.25;8.77;;;;;;;8.33;100.00;100472.63;5034779;28;20645;-74
2022/11/25 10:22:47;;;;;;;13.10;8.45;;;;;;;8.42;100.00;100474.13;5034918;28;20272;-74
2022/11/25 10:25:18;;;;;;;10.90;9.27;;;;;;;7.91;100.00;100469.59;5034729;28;20276;-74
2022/11/25 10:27:49;;;;;;;13.07;10.10;;;;;;;8.01;100.00;100480.91;5037431;28;20182;-75
2022/11/25 10:30:20;;;;;;;12.13;9.15;;;;;;;8.14;100.00;100476.88;5041292;28;20606;-74
2022/11/25 10:32:51;;;;;;;14.60;9.95;;;;;;;8.33;100.00;100477.09;5040830;28;20553;-74
2022/11/25 10:35:24;;;;;;;12.60;8.95;;;;;;;8.38;100.00;100472.44;5041662;28;20222;-73
2022/11/25 10:37:56;;;;;;;15.30;8.45;;;;;;;8.91;100.00;100469.66;5051364;28;20194;-74
2022/11/25 10:40:22;;;;;;;18.60;10.35;;;;;;;9.23;100.00;100472.06;5041137;28;20205;-77
2022/11/25 10:42:49;;;;;;;15.25;9.57;;;;;;;9.40;100.00;100467.75;5034907;28;20656;-74
2022/11/25 10:45:20;;;;;;;14.20;9.95;;;;;;;10.84;100.00;100458.13;5035219;28;20304;-75
2022/11/25 10:48:06;;;;;;;11.18;8.95;;;;;;;11.05;100.00;100458.06;5035953;28;20636;-75
2022/11/25 10:50:47;;;;;;;12.35;8.18;;;;;;;10.34;100.00;100465.75;5035091;28;20186;-74
2022/11/25 10:53:17;;;;;;;11.48;9.10;;;;;;;9.89;100.00;100464.91;5035290;28;20208;-75
2022/11/25 10:56:00;;;;;;;12.43;9.25;;;;;;;9.12;100.00;100477.84;5034446;28;20230;-74
2022/11/25 10:58:31;;;;;;;21.20;10.40;;;;;;;9.06;100.00;100470.03;5035346;28;20233;-74
2022/11/25 11:01:14;;;;;;;16.90;10.55;;;;;;;8.95;100.00;100484.75;5037100;28;20217;-75
2022/11/25 11:03:42;;;;;;;12.60;10.43;;;;;;;8.89;100.00;100484.09;5038337;28;20224;-74
2022/11/25 11:06:30;;;;;;;13.27;9.02;;;;;;;10.03;100.00;100477.78;5034596;28;20290;-75
2022/11/25 11:08:56;;;;;;;11.07;8.88;;;;;;;10.64;100.00;100474.31;5035601;28;20234;-74
2022/11/25 11:11:24;;;;;;;15.07;10.15;;;;;;;11.30;100.00;100479.34;5037256;28;20675;-74
2022/11/25 11:13:59;;;;;;;12.57;8.65;;;;;;;11.50;100.00;100473.03;5037095;28;20668;-74
2022/11/25 11:16:34;;;;;;;11.38;7.03;;;;;;;12.34;100.00;100467.09;5049494;23;20232;-73
2022/11/25 11:19:00;;;;;;;12.80;8.05;;;;;;;11.84;100.00;100480.34;5036313;28;20627;-74
2022/11/25 11:21:32;;;;;;;11.32;7.78;;;;;;;11.71;100.00;100479.19;5037298;28;20289;-72
2022/11/25 11:23:59;;;;;;;9.93;7.30;;;;;;;11.93;100.00;100481.75;5037819;28;20190;-74
2022/11/25 11:26:27;;;;;;;11.07;8.10;;;;;;;11.40;100.00;100496.88;5036212;28;20229;-73
2022/11/25 11:29:03;;;;;;;8.68;6.75;;;;;;;12.24;100.00;100489.19;5035053;28;20576;-72
2022/11/25 11:31:35;;;;;;;13.20;8.13;;;;;;;12.73;100.00;100483.94;5035295;28;20651;-71